sensor_id;sensor_type;location;lat;lon;timestamp;P1;durP1;ratioP1;P2;durP2;ratioP2
8331;SDS011;4203;48.144;14.118;2023-12-14T00:02:29;4.60;;;4.13;;
8331;SDS011;4203;48.144;14.118;2023-12-14T00:05:20;4.23;;;3.83;;
8331;SDS011;4203;48.144;14.118;2023-12-14T00:08:01;4.47;;;4.07;;
8331;SDS011;4203;48.144;14.118;2023-12-14T00:13:41;4.17;;;3.80;;
8331;SDS011;4203;48.144;14.118;2023-12-14T00:16:18;3.77;;;3.47;;
8331;SDS011;4203;48.144;14.118;2023-12-14T00:19:16;4.00;;;3.70;;
8331;SDS011;4203;48.144;14.118;2023-12-14T00:25:03;4.90;;;4.50;;
8331;SDS011;4203;48.144;14.118;2023-12-14T00:27:42;4.80;;;4.30;;
8331;SDS011;4203;48.144;14.118;2023-12-14T00:30:18;4.40;;;3.90;;
8331;SDS011;4203;48.144;14.118;2023-12-14T00:32:46;3.90;;;3.60;;
8331;SDS011;4203;48.144;14.118;2023-12-14T00:35:13;3.83;;;3.53;;
8331;SDS011;4203;48.144;14.118;2023-12-14T00:37:44;3.60;;;3.30;;
8331;SDS011;4203;48.144;14.118;2023-12-14T00:40:16;4.13;;;3.73;;
8331;SDS011;4203;48.144;14.118;2023-12-14T00:42:44;4.50;;;4.03;;
8331;SDS011;4203;48.144;14.118;2023-12-14T00:45:11;4.60;;;4.20;;
8331;SDS011;4203;48.144;14.118;2023-12-14T00:47:40;4.67;;;4.00;;
8331;SDS011;4203;48.144;14.118;2023-12-14T00:50:07;5.93;;;5.33;;
8331;SDS011;4203;48.144;14.118;2023-12-14T00:52:35;6.17;;;5.53;;
8331;SDS011;4203;48.144;14.118;2023-12-14T00:55:02;5.80;;;5.20;;
8331;SDS011;4203;48.144;14.118;2023-12-14T00:57:29;6.00;;;5.43;;
8331;SDS011;4203;48.144;14.118;2023-12-14T00:59:56;5.67;;;5.07;;
8331;SDS011;4203;48.144;14.118;2023-12-14T01:05:47;5.10;;;4.50;;
8331;SDS011;4203;48.144;14.118;2023-12-14T01:08:14;4.43;;;4.03;;
8331;SDS011;4203;48.144;14.118;2023-12-14T01:10:41;4.57;;;4.17;;
8331;SDS011;4203;48.144;14.118;2023-12-14T01:16:30;4.67;;;4.23;;
8331;SDS011;4203;48.144;14.118;2023-12-14T01:18:57;4.73;;;4.20;;
8331;SDS011;4203;48.144;14.118;2023-12-14T01:21:26;3.93;;;3.63;;
8331;SDS011;4203;48.144;14.118;2023-12-14T01:23:53;4.03;;;3.63;;
8331;SDS011;4203;48.144;14.118;2023-12-14T01:26:21;3.53;;;3.23;;
8331;SDS011;4203;48.144;14.118;2023-12-14T01:28:48;3.73;;;3.47;;
8331;SDS011;4203;48.144;14.118;2023-12-14T01:34:37;4.30;;;4.00;;
8331;SDS011;4203;48.144;14.118;2023-12-14T01:37:06;4.20;;;3.37;;
8331;SDS011;4203;48.144;14.118;2023-12-14T01:39:33;3.80;;;3.50;;
8331;SDS011;4203;48.144;14.118;2023-12-14T01:45:23;3.93;;;3.47;;
8331;SDS011;4203;48.144;14.118;2023-12-14T01:47:50;4.00;;;3.70;;
8331;SDS011;4203;48.144;14.118;2023-12-14T01:50:17;3.83;;;3.53;;
8331;SDS011;4203;48.144;14.118;2023-12-14T01:56:09;3.60;;;3.30;;
8331;SDS011;4203;48.144;14.118;2023-12-14T01:58:36;5.60;;;4.03;;
8331;SDS011;4203;48.144;14.118;2023-12-14T02:04:25;3.77;;;3.10;;
8331;SDS011;4203;48.144;14.118;2023-12-14T02:06:53;4.40;;;3.67;;
8331;SDS011;4203;48.144;14.118;2023-12-14T02:09:20;5.03;;;4.00;;
8331;SDS011;4203;48.144;14.118;2023-12-14T02:15:36;6.80;;;3.73;;
8331;SDS011;4203;48.144;14.118;2023-12-14T02:18:04;3.83;;;3.53;;
8331;SDS011;4203;48.144;14.118;2023-12-14T02:20:31;4.47;;;4.07;;
8331;SDS011;4203;48.144;14.118;2023-12-14T02:26:21;4.63;;;4.20;;
8331;SDS011;4203;48.144;14.118;2023-12-14T02:28:49;4.87;;;4.27;;
8331;SDS011;4203;48.144;14.118;2023-12-14T02:31:17;4.53;;;4.13;;
8331;SDS011;4203;48.144;14.118;2023-12-14T02:33:45;4.27;;;3.97;;
8331;SDS011;4203;48.144;14.118;2023-12-14T02:36:12;5.17;;;4.67;;
8331;SDS011;4203;48.144;14.118;2023-12-14T02:38:39;4.20;;;3.83;;
8331;SDS011;4203;48.144;14.118;2023-12-14T02:41:06;4.27;;;3.73;;
8331;SDS011;4203;48.144;14.118;2023-12-14T02:43:35;4.13;;;3.63;;
8331;SDS011;4203;48.144;14.118;2023-12-14T02:46:03;4.13;;;3.83;;
8331;SDS011;4203;48.144;14.118;2023-12-14T02:48:30;4.30;;;3.90;;
8331;SDS011;4203;48.144;14.118;2023-12-14T02:54:19;3.90;;;3.50;;
8331;SDS011;4203;48.144;14.118;2023-12-14T02:56:46;3.73;;;3.43;;
8331;SDS011;4203;48.144;14.118;2023-12-14T02:59:15;4.00;;;3.60;;
8331;SDS011;4203;48.144;14.118;2023-12-14T03:05:04;3.83;;;3.53;;
8331;SDS011;4203;48.144;14.118;2023-12-14T03:07:32;3.73;;;3.43;;
8331;SDS011;4203;48.144;14.118;2023-12-14T03:09:59;3.83;;;3.47;;
8331;SDS011;4203;48.144;14.118;2023-12-14T03:15:50;3.13;;;2.93;;
8331;SDS011;4203;48.144;14.118;2023-12-14T03:18:17;3.40;;;3.10;;
8331;SDS011;4203;48.144;14.118;2023-12-14T03:20:44;3.77;;;3.47;;
8331;SDS011;4203;48.144;14.118;2023-12-14T03:23:13;3.07;;;2.87;;
8331;SDS011;4203;48.144;14.118;2023-12-14T03:25:40;3.30;;;3.00;;
8331;SDS011;4203;48.144;14.118;2023-12-14T03:28:08;3.10;;;2.80;;
8331;SDS011;4203;48.144;14.118;2023-12-14T03:30:35;3.07;;;2.87;;
8331;SDS011;4203;48.144;14.118;2023-12-14T03:36:25;5.77;;;4.00;;
8331;SDS011;4203;48.144;14.118;2023-12-14T03:38:53;3.47;;;3.17;;
8331;SDS011;4203;48.144;14.118;2023-12-14T03:41:20;3.67;;;3.40;;
8331;SDS011;4203;48.144;14.118;2023-12-14T03:43:47;3.80;;;3.37;;
8331;SDS011;4203;48.144;14.118;2023-12-14T03:46:14;3.10;;;2.90;;
8331;SDS011;4203;48.144;14.118;2023-12-14T03:48:42;4.00;;;3.70;;
8331;SDS011;4203;48.144;14.118;2023-12-14T03:54:33;3.70;;;3.17;;
8331;SDS011;4203;48.144;14.118;2023-12-14T03:57:00;3.53;;;3.33;;
8331;SDS011;4203;48.144;14.118;2023-12-14T03:59:27;3.67;;;3.37;;
8331;SDS011;4203;48.144;14.118;2023-12-14T04:05:17;3.37;;;3.17;;
8331;SDS011;4203;48.144;14.118;2023-12-14T04:07:44;3.27;;;2.97;;
8331;SDS011;4203;48.144;14.118;2023-12-14T04:10:13;3.97;;;3.33;;
8331;SDS011;4203;48.144;14.118;2023-12-14T04:16:02;4.20;;;3.90;;
8331;SDS011;4203;48.144;14.118;2023-12-14T04:18:30;3.80;;;3.50;;
8331;SDS011;4203;48.144;14.118;2023-12-14T04:20:57;3.37;;;3.10;;
8331;SDS011;4203;48.144;14.118;2023-12-14T04:23:24;3.53;;;3.23;;
8331;SDS011;4203;48.144;14.118;2023-12-14T04:25:54;3.50;;;3.20;;
8331;SDS011;4203;48.144;14.118;2023-12-14T04:28:21;3.47;;;3.23;;
8331;SDS011;4203;48.144;14.118;2023-12-14T04:30:48;3.93;;;3.63;;
8331;SDS011;4203;48.144;14.118;2023-12-14T04:33:16;3.80;;;3.50;;
8331;SDS011;4203;48.144;14.118;2023-12-14T04:35:43;3.87;;;3.50;;
8331;SDS011;4203;48.144;14.118;2023-12-14T04:38:10;3.30;;;3.10;;
8331;SDS011;4203;48.144;14.118;2023-12-14T04:40:39;4.00;;;3.70;;
8331;SDS011;4203;48.144;14.118;2023-12-14T04:46:30;4.20;;;3.90;;
8331;SDS011;4203;48.144;14.118;2023-12-14T04:48:58;3.90;;;3.60;;
8331;SDS011;4203;48.144;14.118;2023-12-14T04:51:25;3.80;;;3.50;;
8331;SDS011;4203;48.144;14.118;2023-12-14T04:53:53;5.23;;;3.63;;
8331;SDS011;4203;48.144;14.118;2023-12-14T04:56:20;3.67;;;3.40;;
8331;SDS011;4203;48.144;14.118;2023-12-14T04:58:47;3.87;;;3.57;;
8331;SDS011;4203;48.144;14.118;2023-12-14T05:04:38;4.13;;;3.73;;
8331;SDS011;4203;48.144;14.118;2023-12-14T05:07:06;5.93;;;4.10;;
8331;SDS011;4203;48.144;14.118;2023-12-14T05:09:34;3.77;;;3.47;;
8331;SDS011;4203;48.144;14.118;2023-12-14T05:15:23;3.63;;;3.33;;
8331;SDS011;4203;48.144;14.118;2023-12-14T05:17:50;4.53;;;4.13;;
8331;SDS011;4203;48.144;14.118;2023-12-14T05:20:19;4.23;;;3.83;;
8331;SDS011;4203;48.144;14.118;2023-12-14T05:26:08;4.20;;;3.80;;
8331;SDS011;4203;48.144;14.118;2023-12-14T05:28:35;4.13;;;3.80;;
8331;SDS011;4203;48.144;14.118;2023-12-14T05:31:03;4.07;;;3.70;;
8331;SDS011;4203;48.144;14.118;2023-12-14T05:33:30;3.77;;;3.47;;
8331;SDS011;4203;48.144;14.118;2023-12-14T05:36:00;3.90;;;3.60;;
8331;SDS011;4203;48.144;14.118;2023-12-14T05:38:27;4.50;;;3.40;;
8331;SDS011;4203;48.144;14.118;2023-12-14T05:40:55;3.70;;;3.40;;
8331;SDS011;4203;48.144;14.118;2023-12-14T05:43:22;3.53;;;2.97;;
8331;SDS011;4203;48.144;14.118;2023-12-14T05:45:49;2.90;;;2.70;;
8331;SDS011;4203;48.144;14.118;2023-12-14T05:48:16;3.33;;;3.13;;
8331;SDS011;4203;48.144;14.118;2023-12-14T05:50:44;4.47;;;4.07;;
8331;SDS011;4203;48.144;14.118;2023-12-14T05:53:13;3.43;;;3.17;;
8331;SDS011;4203;48.144;14.118;2023-12-14T06:06:04;2.77;;;2.67;;
8331;SDS011;4203;48.144;14.118;2023-12-14T06:28:24;5.60;;;4.30;;
8331;SDS011;4203;48.144;14.118;2023-12-14T06:34:20;5.47;;;4.50;;
8331;SDS011;4203;48.144;14.118;2023-12-14T06:37:06;4.23;;;3.83;;
8331;SDS011;4203;48.144;14.118;2023-12-14T06:39:47;4.43;;;4.03;;
8331;SDS011;4203;48.144;14.118;2023-12-14T06:49:51;6.20;;;5.70;;
8331;SDS011;4203;48.144;14.118;2023-12-14T06:56:10;5.20;;;4.70;;
8331;SDS011;4203;48.144;14.118;2023-12-14T07:02:27;7.70;;;5.20;;
8331;SDS011;4203;48.144;14.118;2023-12-14T07:05:06;6.27;;;5.07;;
8331;SDS011;4203;48.144;14.118;2023-12-14T07:08:00;7.47;;;5.10;;
8331;SDS011;4203;48.144;14.118;2023-12-14T07:14:41;5.63;;;5.13;;
8331;SDS011;4203;48.144;14.118;2023-12-14T07:17:10;5.60;;;5.10;;
8331;SDS011;4203;48.144;14.118;2023-12-14T07:19:38;7.77;;;5.93;;
8331;SDS011;4203;48.144;14.118;2023-12-14T07:22:08;6.27;;;4.93;;
8331;SDS011;4203;48.144;14.118;2023-12-14T07:24:38;5.27;;;4.77;;
8331;SDS011;4203;48.144;14.118;2023-12-14T07:27:05;5.57;;;5.07;;
8331;SDS011;4203;48.144;14.118;2023-12-14T07:29:33;4.87;;;4.47;;
8331;SDS011;4203;48.144;14.118;2023-12-14T07:32:00;4.63;;;4.07;;
8331;SDS011;4203;48.144;14.118;2023-12-14T07:34:27;5.60;;;4.47;;
8331;SDS011;4203;48.144;14.118;2023-12-14T07:36:55;5.13;;;4.00;;
8331;SDS011;4203;48.144;14.118;2023-12-14T07:39:27;5.03;;;3.87;;
8331;SDS011;4203;48.144;14.118;2023-12-14T07:42:00;3.47;;;3.17;;
8331;SDS011;4203;48.144;14.118;2023-12-14T07:44:28;3.80;;;3.50;;
8331;SDS011;4203;48.144;14.118;2023-12-14T07:47:01;3.80;;;3.20;;
8331;SDS011;4203;48.144;14.118;2023-12-14T07:49:29;3.50;;;3.20;;
8331;SDS011;4203;48.144;14.118;2023-12-14T07:55:20;3.57;;;3.27;;
8331;SDS011;4203;48.144;14.118;2023-12-14T07:57:47;3.50;;;3.20;;
8331;SDS011;4203;48.144;14.118;2023-12-14T08:00:16;5.17;;;3.87;;
8331;SDS011;4203;48.144;14.118;2023-12-14T08:06:05;3.30;;;3.00;;
8331;SDS011;4203;48.144;14.118;2023-12-14T08:08:33;3.60;;;3.30;;
8331;SDS011;4203;48.144;14.118;2023-12-14T08:14:24;3.23;;;2.90;;
8331;SDS011;4203;48.144;14.118;2023-12-14T08:16:51;3.13;;;2.93;;
8331;SDS011;4203;48.144;14.118;2023-12-14T08:19:19;3.10;;;2.70;;
8331;SDS011;4203;48.144;14.118;2023-12-14T08:27:55;3.53;;;2.87;;
8331;SDS011;4203;48.144;14.118;2023-12-14T08:30:24;3.10;;;2.90;;
8331;SDS011;4203;48.144;14.118;2023-12-14T08:35:55;4.40;;;2.60;;
8331;SDS011;4203;48.144;14.118;2023-12-14T08:38:23;2.37;;;2.27;;
8331;SDS011;4203;48.144;14.118;2023-12-14T08:44:06;1.80;;;1.70;;
8331;SDS011;4203;48.144;14.118;2023-12-14T08:46:42;1.97;;;1.87;;
8331;SDS011;4203;48.144;14.118;2023-12-14T08:49:12;1.60;;;1.50;;
8331;SDS011;4203;48.144;14.118;2023-12-14T08:51:41;1.70;;;1.60;;
8331;SDS011;4203;48.144;14.118;2023-12-14T08:54:09;1.63;;;1.53;;
8331;SDS011;4203;48.144;14.118;2023-12-14T08:56:38;1.37;;;1.37;;
8331;SDS011;4203;48.144;14.118;2023-12-14T08:59:06;1.80;;;1.70;;
8331;SDS011;4203;48.144;14.118;2023-12-14T09:04:58;1.70;;;1.60;;
8331;SDS011;4203;48.144;14.118;2023-12-14T09:07:27;1.43;;;1.33;;
8331;SDS011;4203;48.144;14.118;2023-12-14T09:09:54;1.57;;;1.50;;
8331;SDS011;4203;48.144;14.118;2023-12-14T09:15:46;1.50;;;1.50;;
8331;SDS011;4203;48.144;14.118;2023-12-14T09:18:17;1.70;;;1.60;;
8331;SDS011;4203;48.144;14.118;2023-12-14T09:20:48;1.60;;;1.50;;
8331;SDS011;4203;48.144;14.118;2023-12-14T09:23:16;1.63;;;1.53;;
8331;SDS011;4203;48.144;14.118;2023-12-14T09:25:46;1.63;;;1.53;;
8331;SDS011;4203;48.144;14.118;2023-12-14T09:28:18;1.80;;;1.70;;
8331;SDS011;4203;48.144;14.118;2023-12-14T09:30:53;1.70;;;1.70;;
8331;SDS011;4203;48.144;14.118;2023-12-14T09:33:25;1.90;;;1.80;;
8331;SDS011;4203;48.144;14.118;2023-12-14T09:36:02;1.70;;;1.60;;
8331;SDS011;4203;48.144;14.118;2023-12-14T09:38:37;2.13;;;1.67;;
8331;SDS011;4203;48.144;14.118;2023-12-14T09:41:11;2.00;;;1.90;;
8331;SDS011;4203;48.144;14.118;2023-12-14T09:43:40;1.83;;;1.73;;
8331;SDS011;4203;48.144;14.118;2023-12-14T09:46:10;2.03;;;1.93;;
8331;SDS011;4203;48.144;14.118;2023-12-14T09:48:44;2.67;;;2.47;;
8331;SDS011;4203;48.144;14.118;2023-12-14T09:54:42;3.53;;;2.40;;
8331;SDS011;4203;48.144;14.118;2023-12-14T09:57:14;4.67;;;2.40;;
8331;SDS011;4203;48.144;14.118;2023-12-14T09:59:51;2.40;;;2.17;;
8331;SDS011;4203;48.144;14.118;2023-12-14T10:05:43;2.50;;;2.30;;
8331;SDS011;4203;48.144;14.118;2023-12-14T10:08:15;3.93;;;2.80;;
8331;SDS011;4203;48.144;14.118;2023-12-14T10:10:46;2.67;;;2.47;;
8331;SDS011;4203;48.144;14.118;2023-12-14T10:13:18;3.13;;;2.93;;
8331;SDS011;4203;48.144;14.118;2023-12-14T10:15:49;2.73;;;2.53;;
8331;SDS011;4203;48.144;14.118;2023-12-14T10:18:21;2.90;;;2.70;;
8331;SDS011;4203;48.144;14.118;2023-12-14T10:20:52;2.97;;;2.77;;
8331;SDS011;4203;48.144;14.118;2023-12-14T10:23:23;3.97;;;3.67;;
8331;SDS011;4203;48.144;14.118;2023-12-14T10:25:56;4.90;;;4.43;;
8331;SDS011;4203;48.144;14.118;2023-12-14T10:28:25;4.40;;;3.83;;
8331;SDS011;4203;48.144;14.118;2023-12-14T10:30:57;4.40;;;4.00;;
8331;SDS011;4203;48.144;14.118;2023-12-14T10:33:26;4.50;;;4.10;;
8331;SDS011;4203;48.144;14.118;2023-12-14T10:35:54;5.37;;;4.23;;
8331;SDS011;4203;48.144;14.118;2023-12-14T10:38:23;6.20;;;4.43;;
8331;SDS011;4203;48.144;14.118;2023-12-14T10:43:38;7.43;;;6.37;;
8331;SDS011;4203;48.144;14.118;2023-12-14T10:46:09;12.73;;;9.60;;
8331;SDS011;4203;48.144;14.118;2023-12-14T10:48:38;15.23;;;9.90;;
8331;SDS011;4203;48.144;14.118;2023-12-14T10:51:07;14.80;;;10.30;;
8331;SDS011;4203;48.144;14.118;2023-12-14T10:53:36;12.37;;;9.73;;
8331;SDS011;4203;48.144;14.118;2023-12-14T10:56:05;14.77;;;9.37;;
8331;SDS011;4203;48.144;14.118;2023-12-14T10:58:46;13.83;;;10.37;;
8331;SDS011;4203;48.144;14.118;2023-12-14T11:04:21;14.40;;;10.13;;
8331;SDS011;4203;48.144;14.118;2023-12-14T11:06:48;12.88;;;9.55;;
8331;SDS011;4203;48.144;14.118;2023-12-14T11:09:17;12.87;;;9.73;;
8331;SDS011;4203;48.144;14.118;2023-12-14T11:20:58;11.33;;;8.90;;
8331;SDS011;4203;48.144;14.118;2023-12-14T11:23:33;16.23;;;9.60;;
8331;SDS011;4203;48.144;14.118;2023-12-14T11:26:04;11.43;;;9.23;;
8331;SDS011;4203;48.144;14.118;2023-12-14T11:28:33;11.90;;;9.37;;
8331;SDS011;4203;48.144;14.118;2023-12-14T11:34:44;10.87;;;8.97;;
8331;SDS011;4203;48.144;14.118;2023-12-14T11:37:13;15.43;;;9.47;;
8331;SDS011;4203;48.144;14.118;2023-12-14T11:39:42;13.13;;;9.63;;
8331;SDS011;4203;48.144;14.118;2023-12-14T11:45:07;11.37;;;9.17;;
8331;SDS011;4203;48.144;14.118;2023-12-14T11:47:35;10.57;;;8.90;;
8331;SDS011;4203;48.144;14.118;2023-12-14T11:50:05;11.73;;;8.60;;
8331;SDS011;4203;48.144;14.118;2023-12-14T11:52:35;10.25;;;8.73;;
8331;SDS011;4203;48.144;14.118;2023-12-14T11:55:03;8.35;;;7.43;;
8331;SDS011;4203;48.144;14.118;2023-12-14T11:57:31;10.60;;;8.10;;
8331;SDS011;4203;48.144;14.118;2023-12-14T11:59:59;13.53;;;8.13;;
8331;SDS011;4203;48.144;14.118;2023-12-14T12:02:43;10.90;;;8.63;;
8331;SDS011;4203;48.144;14.118;2023-12-14T12:05:12;10.90;;;8.10;;
8331;SDS011;4203;48.144;14.118;2023-12-14T12:07:44;9.27;;;7.60;;
8331;SDS011;4203;48.144;14.118;2023-12-14T12:10:11;9.80;;;8.20;;
8331;SDS011;4203;48.144;14.118;2023-12-14T12:15:27;10.60;;;7.87;;
8331;SDS011;4203;48.144;14.118;2023-12-14T12:17:54;8.77;;;7.10;;
8331;SDS011;4203;48.144;14.118;2023-12-14T12:20:23;9.63;;;7.37;;
8331;SDS011;4203;48.144;14.118;2023-12-14T12:22:52;9.13;;;7.90;;
8331;SDS011;4203;48.144;14.118;2023-12-14T12:25:20;9.03;;;7.70;;
8331;SDS011;4203;48.144;14.118;2023-12-14T12:27:49;7.83;;;7.03;;
8331;SDS011;4203;48.144;14.118;2023-12-14T12:30:16;7.93;;;7.10;;
8331;SDS011;4203;48.144;14.118;2023-12-14T12:36:08;8.50;;;7.30;;
8331;SDS011;4203;48.144;14.118;2023-12-14T12:38:36;9.93;;;6.53;;
8331;SDS011;4203;48.144;14.118;2023-12-14T12:41:08;7.90;;;7.10;;
8331;SDS011;4203;48.144;14.118;2023-12-14T12:43:36;8.10;;;7.20;;
8331;SDS011;4203;48.144;14.118;2023-12-14T12:46:03;8.03;;;6.77;;
8331;SDS011;4203;48.144;14.118;2023-12-14T12:48:31;7.80;;;6.75;;
8331;SDS011;4203;48.144;14.118;2023-12-14T12:51:11;7.20;;;6.38;;
8331;SDS011;4203;48.144;14.118;2023-12-14T12:53:38;7.07;;;6.18;;
8331;SDS011;4203;48.144;14.118;2023-12-14T12:56:05;6.45;;;5.85;;
8331;SDS011;4203;48.144;14.118;2023-12-14T12:58:33;10.55;;;6.53;;
8331;SDS011;4203;48.144;14.118;2023-12-14T13:04:22;6.03;;;4.97;;
8331;SDS011;4203;48.144;14.118;2023-12-14T13:06:52;5.15;;;4.65;;
8331;SDS011;4203;48.144;14.118;2023-12-14T13:09:20;6.10;;;5.10;;
8331;SDS011;4203;48.144;14.118;2023-12-14T13:15:22;4.40;;;4.00;;
8331;SDS011;4203;48.144;14.118;2023-12-14T13:17:50;4.68;;;4.20;;
8331;SDS011;4203;48.144;14.118;2023-12-14T13:20:17;4.18;;;3.88;;
8331;SDS011;4203;48.144;14.118;2023-12-14T13:22:46;4.68;;;4.03;;
8331;SDS011;4203;48.144;14.118;2023-12-14T13:25:14;4.20;;;3.80;;
8331;SDS011;4203;48.144;14.118;2023-12-14T13:27:41;4.68;;;4.00;;
8331;SDS011;4203;48.144;14.118;2023-12-14T13:30:09;6.15;;;4.50;;
8331;SDS011;4203;48.144;14.118;2023-12-14T13:32:39;5.32;;;3.95;;
8331;SDS011;4203;48.144;14.118;2023-12-14T13:35:06;5.35;;;4.30;;
8331;SDS011;4203;48.144;14.118;2023-12-14T13:37:34;5.75;;;4.50;;
8331;SDS011;4203;48.144;14.118;2023-12-14T13:40:03;4.97;;;4.57;;
8331;SDS011;4203;48.144;14.118;2023-12-14T13:42:40;5.47;;;4.47;;
8331;SDS011;4203;48.144;14.118;2023-12-14T13:45:08;5.47;;;4.40;;
8331;SDS011;4203;48.144;14.118;2023-12-14T13:47:36;5.17;;;4.70;;
8331;SDS011;4203;48.144;14.118;2023-12-14T13:50:03;4.90;;;4.40;;
8331;SDS011;4203;48.144;14.118;2023-12-14T13:52:31;4.70;;;4.13;;
8331;SDS011;4203;48.144;14.118;2023-12-14T13:54:58;5.70;;;4.10;;
8331;SDS011;4203;48.144;14.118;2023-12-14T13:57:27;5.30;;;4.80;;
8331;SDS011;4203;48.144;14.118;2023-12-14T13:59:54;5.00;;;4.60;;
8331;SDS011;4203;48.144;14.118;2023-12-14T14:02:22;6.80;;;4.35;;
8331;SDS011;4203;48.144;14.118;2023-12-14T14:04:52;6.80;;;4.57;;
8331;SDS011;4203;48.144;14.118;2023-12-14T14:07:19;6.20;;;4.63;;
8331;SDS011;4203;48.144;14.118;2023-12-14T14:09:47;4.80;;;4.40;;
8331;SDS011;4203;48.144;14.118;2023-12-14T14:12:16;4.43;;;4.10;;
8331;SDS011;4203;48.144;14.118;2023-12-14T14:14:44;5.72;;;4.20;;
8331;SDS011;4203;48.144;14.118;2023-12-14T14:17:12;5.10;;;4.65;;
8331;SDS011;4203;48.144;14.118;2023-12-14T14:19:45;6.78;;;4.72;;
8331;SDS011;4203;48.144;14.118;2023-12-14T14:22:15;6.30;;;4.53;;
8331;SDS011;4203;48.144;14.118;2023-12-14T14:24:42;5.40;;;4.90;;
8331;SDS011;4203;48.144;14.118;2023-12-14T14:27:09;6.63;;;5.20;;
8331;SDS011;4203;48.144;14.118;2023-12-14T14:29:37;5.38;;;4.88;;
8331;SDS011;4203;48.144;14.118;2023-12-14T14:32:07;5.53;;;5.00;;
8331;SDS011;4203;48.144;14.118;2023-12-14T14:34:35;6.32;;;5.20;;
8331;SDS011;4203;48.144;14.118;2023-12-14T14:37:02;6.20;;;5.60;;
8331;SDS011;4203;48.144;14.118;2023-12-14T14:39:33;6.20;;;5.35;;
8331;SDS011;4203;48.144;14.118;2023-12-14T14:42:07;7.00;;;5.80;;
8331;SDS011;4203;48.144;14.118;2023-12-14T14:44:39;6.67;;;5.50;;
8331;SDS011;4203;48.144;14.118;2023-12-14T14:47:09;6.50;;;5.40;;
8331;SDS011;4203;48.144;14.118;2023-12-14T14:49:43;6.10;;;5.37;;
8331;SDS011;4203;48.144;14.118;2023-12-14T14:52:20;6.97;;;5.60;;
8331;SDS011;4203;48.144;14.118;2023-12-14T14:54:53;7.40;;;5.97;;
8331;SDS011;4203;48.144;14.118;2023-12-14T14:57:28;6.33;;;5.80;;
8331;SDS011;4203;48.144;14.118;2023-12-14T14:59:55;7.00;;;6.17;;
8331;SDS011;4203;48.144;14.118;2023-12-14T15:02:26;5.97;;;5.20;;
8331;SDS011;4203;48.144;14.118;2023-12-14T15:04:53;5.83;;;5.30;;
8331;SDS011;4203;48.144;14.118;2023-12-14T15:07:20;6.97;;;6.03;;
8331;SDS011;4203;48.144;14.118;2023-12-14T15:09:47;6.53;;;5.77;;
8331;SDS011;4203;48.144;14.118;2023-12-14T15:12:15;6.80;;;5.93;;
8331;SDS011;4203;48.144;14.118;2023-12-14T15:14:42;12.37;;;6.60;;
8331;SDS011;4203;48.144;14.118;2023-12-14T15:17:14;6.83;;;6.07;;
8331;SDS011;4203;48.144;14.118;2023-12-14T15:19:45;6.77;;;5.80;;
8331;SDS011;4203;48.144;14.118;2023-12-14T15:22:12;8.33;;;6.47;;
8331;SDS011;4203;48.144;14.118;2023-12-14T15:24:40;8.47;;;6.53;;
8331;SDS011;4203;48.144;14.118;2023-12-14T15:27:07;6.97;;;6.27;;
8331;SDS011;4203;48.144;14.118;2023-12-14T15:29:34;7.03;;;5.97;;
8331;SDS011;4203;48.144;14.118;2023-12-14T15:38:47;6.83;;;6.20;;
8331;SDS011;4203;48.144;14.118;2023-12-14T15:44:37;8.10;;;6.40;;
8331;SDS011;4203;48.144;14.118;2023-12-14T15:47:04;7.33;;;6.37;;
8331;SDS011;4203;48.144;14.118;2023-12-14T15:49:32;8.40;;;6.90;;
8331;SDS011;4203;48.144;14.118;2023-12-14T15:55:24;6.50;;;5.63;;
8331;SDS011;4203;48.144;14.118;2023-12-14T15:57:52;8.60;;;6.40;;
8331;SDS011;4203;48.144;14.118;2023-12-14T16:00:19;8.53;;;5.70;;
8331;SDS011;4203;48.144;14.118;2023-12-14T16:06:10;7.20;;;5.90;;
8331;SDS011;4203;48.144;14.118;2023-12-14T16:08:37;7.60;;;6.37;;
8331;SDS011;4203;48.144;14.118;2023-12-14T16:11:09;7.13;;;6.30;;
8331;SDS011;4203;48.144;14.118;2023-12-14T16:13:38;9.30;;;6.90;;
8331;SDS011;4203;48.144;14.118;2023-12-14T16:16:06;8.53;;;6.80;;
8331;SDS011;4203;48.144;14.118;2023-12-14T16:18:35;8.60;;;6.77;;
8331;SDS011;4203;48.144;14.118;2023-12-14T16:24:24;9.13;;;7.03;;
8331;SDS011;4203;48.144;14.118;2023-12-14T16:26:52;10.70;;;7.60;;
8331;SDS011;4203;48.144;14.118;2023-12-14T16:29:21;8.53;;;7.40;;
8331;SDS011;4203;48.144;14.118;2023-12-14T16:34:59;9.60;;;7.67;;
8331;SDS011;4203;48.144;14.118;2023-12-14T16:37:34;9.73;;;7.83;;
8331;SDS011;4203;48.144;14.118;2023-12-14T16:40:12;10.60;;;8.60;;
8331;SDS011;4203;48.144;14.118;2023-12-14T16:42:56;10.33;;;8.27;;
8331;SDS011;4203;48.144;14.118;2023-12-14T16:45:25;9.37;;;7.90;;
8331;SDS011;4203;48.144;14.118;2023-12-14T16:47:57;9.50;;;7.97;;
8331;SDS011;4203;48.144;14.118;2023-12-14T16:50:29;8.77;;;7.87;;
8331;SDS011;4203;48.144;14.118;2023-12-14T16:56:19;9.70;;;7.47;;
8331;SDS011;4203;48.144;14.118;2023-12-14T16:58:55;9.73;;;8.70;;
8331;SDS011;4203;48.144;14.118;2023-12-14T17:01:23;9.87;;;7.80;;
8331;SDS011;4203;48.144;14.118;2023-12-14T17:03:50;10.60;;;7.17;;
8331;SDS011;4203;48.144;14.118;2023-12-14T17:06:18;8.30;;;7.33;;
8331;SDS011;4203;48.144;14.118;2023-12-14T17:08:45;9.90;;;8.03;;
8331;SDS011;4203;48.144;14.118;2023-12-14T17:11:13;7.70;;;6.90;;
8331;SDS011;4203;48.144;14.118;2023-12-14T17:13:41;9.47;;;7.83;;
8331;SDS011;4203;48.144;14.118;2023-12-14T17:16:13;10.17;;;8.30;;
8331;SDS011;4203;48.144;14.118;2023-12-14T17:18:41;8.20;;;7.40;;
8331;SDS011;4203;48.144;14.118;2023-12-14T17:21:15;9.33;;;7.50;;
8331;SDS011;4203;48.144;14.118;2023-12-14T17:23:43;8.53;;;7.63;;
8331;SDS011;4203;48.144;14.118;2023-12-14T17:26:11;9.30;;;6.83;;
8331;SDS011;4203;48.144;14.118;2023-12-14T17:28:42;6.77;;;6.03;;
8331;SDS011;4203;48.144;14.118;2023-12-14T17:31:10;6.37;;;5.77;;
8331;SDS011;4203;48.144;14.118;2023-12-14T17:33:41;5.73;;;5.23;;
8331;SDS011;4203;48.144;14.118;2023-12-14T17:36:09;6.83;;;5.70;;
8331;SDS011;4203;48.144;14.118;2023-12-14T17:38:37;4.97;;;4.57;;
8331;SDS011;4203;48.144;14.118;2023-12-14T17:41:07;6.40;;;4.43;;
8331;SDS011;4203;48.144;14.118;2023-12-14T17:43:35;4.60;;;4.20;;
8331;SDS011;4203;48.144;14.118;2023-12-14T17:46:03;4.77;;;4.37;;
8331;SDS011;4203;48.144;14.118;2023-12-14T17:48:31;4.83;;;4.30;;
8331;SDS011;4203;48.144;14.118;2023-12-14T17:51:01;5.17;;;4.10;;
8331;SDS011;4203;48.144;14.118;2023-12-14T17:53:28;3.90;;;3.53;;
8331;SDS011;4203;48.144;14.118;2023-12-14T17:55:56;4.07;;;3.77;;
8331;SDS011;4203;48.144;14.118;2023-12-14T17:58:23;3.97;;;3.67;;
8331;SDS011;4203;48.144;14.118;2023-12-14T18:00:53;3.87;;;3.57;;
8331;SDS011;4203;48.144;14.118;2023-12-14T18:03:21;3.90;;;3.60;;
8331;SDS011;4203;48.144;14.118;2023-12-14T18:05:48;4.43;;;4.03;;
8331;SDS011;4203;48.144;14.118;2023-12-14T18:08:17;4.23;;;3.80;;
8331;SDS011;4203;48.144;14.118;2023-12-14T18:10:45;4.93;;;4.30;;
8331;SDS011;4203;48.144;14.118;2023-12-14T18:13:12;5.53;;;4.50;;
8331;SDS011;4203;48.144;14.118;2023-12-14T18:15:42;4.97;;;4.47;;
8331;SDS011;4203;48.144;14.118;2023-12-14T18:18:10;5.20;;;4.73;;
8331;SDS011;4203;48.144;14.118;2023-12-14T18:20:37;5.07;;;4.67;;
8331;SDS011;4203;48.144;14.118;2023-12-14T18:26:28;5.13;;;4.63;;
8331;SDS011;4203;48.144;14.118;2023-12-14T18:28:55;5.37;;;4.80;;
8331;SDS011;4203;48.144;14.118;2023-12-14T18:34:54;6.30;;;5.53;;
8331;SDS011;4203;48.144;14.118;2023-12-14T18:37:35;5.77;;;4.93;;
8331;SDS011;4203;48.144;14.118;2023-12-14T18:40:03;6.33;;;4.70;;
8331;SDS011;4203;48.144;14.118;2023-12-14T18:45:57;5.53;;;5.03;;
8331;SDS011;4203;48.144;14.118;2023-12-14T18:48:24;5.27;;;4.87;;
8331;SDS011;4203;48.144;14.118;2023-12-14T18:50:51;4.63;;;4.23;;
8331;SDS011;4203;48.144;14.118;2023-12-14T18:53:18;4.93;;;4.53;;
8331;SDS011;4203;48.144;14.118;2023-12-14T18:55:47;4.83;;;4.17;;
8331;SDS011;4203;48.144;14.118;2023-12-14T18:58:15;4.00;;;3.60;;
8331;SDS011;4203;48.144;14.118;2023-12-14T19:00:46;4.87;;;4.27;;
8331;SDS011;4203;48.144;14.118;2023-12-14T19:03:16;5.07;;;3.93;;
8331;SDS011;4203;48.144;14.118;2023-12-14T19:05:44;4.63;;;4.23;;